createdAt,value
2018-05-09T00:00:59.335Z,6.00
2018-05-09T00:01:59.334Z,7.70
2018-05-09T00:02:59.341Z,8.80
2018-05-09T00:03:59.339Z,6.30
2018-05-09T00:04:59.342Z,8.70
2018-05-09T00:05:59.341Z,10.40
2018-05-09T00:06:59.334Z,8.50
2018-05-09T00:07:59.334Z,9.20
2018-05-09T00:08:59.335Z,9.40
2018-05-09T00:09:59.342Z,9.10
2018-05-09T00:10:59.370Z,9.30
2018-05-09T00:11:59.404Z,10.20
2018-05-09T00:12:59.336Z,12.50
2018-05-09T00:13:59.349Z,11.50
2018-05-09T00:14:59.335Z,10.40
2018-05-09T00:15:59.335Z,12.50
2018-05-09T00:16:59.334Z,11.80
2018-05-09T00:17:59.341Z,11.90
2018-05-09T00:18:59.339Z,10.90
2018-05-09T00:19:59.331Z,12.90
2018-05-09T00:20:59.334Z,14.30
2018-05-09T00:21:59.343Z,12.90
2018-05-09T00:22:59.340Z,14.70
2018-05-09T00:23:59.341Z,17.50
2018-05-09T00:24:59.356Z,14.50
2018-05-09T00:25:59.343Z,15.70
2018-05-09T00:26:59.335Z,14.10
2018-05-09T00:27:59.335Z,15.00
2018-05-09T00:28:59.336Z,14.10
2018-05-09T00:29:59.336Z,14.90
2018-05-09T00:30:59.342Z,16.00
2018-05-09T00:31:59.337Z,17.30
2018-05-09T00:32:59.343Z,13.80
2018-05-09T00:33:59.335Z,13.80
2018-05-09T00:34:59.341Z,12.50
2018-05-09T00:35:59.336Z,14.40
2018-05-09T00:36:59.338Z,12.90
2018-05-09T00:37:59.336Z,14.90
2018-05-09T00:38:59.337Z,16.50
2018-05-09T00:39:59.342Z,14.50
2018-05-09T00:40:59.337Z,14.60
2018-05-09T00:41:59.337Z,14.20
2018-05-09T00:42:59.355Z,13.80
2018-05-09T00:43:59.332Z,11.80
2018-05-09T00:44:59.337Z,12.00
2018-05-09T00:45:59.337Z,13.60
2018-05-09T00:46:59.338Z,11.70
2018-05-09T00:47:59.335Z,14.10
2018-05-09T00:48:59.337Z,14.00
2018-05-09T00:49:59.337Z,14.10
2018-05-09T00:50:59.337Z,13.40
2018-05-09T00:51:59.331Z,13.20
2018-05-09T00:52:59.336Z,13.70
2018-05-09T00:53:59.336Z,12.50
2018-05-09T00:54:59.337Z,14.30
2018-05-09T00:55:59.336Z,12.40
2018-05-09T00:56:59.340Z,12.90
2018-05-09T00:57:59.419Z,13.40
2018-05-09T00:58:59.332Z,13.60
2018-05-09T00:59:59.344Z,9.40
2018-05-09T01:00:59.338Z,13.10
2018-05-09T01:01:59.336Z,10.30
2018-05-09T01:02:59.337Z,10.10
2018-05-09T01:03:59.335Z,9.80
2018-05-09T01:04:59.336Z,10.40
2018-05-09T01:05:59.336Z,10.70
2018-05-09T01:06:59.346Z,9.30
2018-05-09T01:07:59.336Z,10.90
2018-05-09T01:08:59.360Z,8.60
2018-05-09T01:09:59.334Z,10.10
2018-05-09T01:10:59.336Z,10.00
2018-05-09T01:11:59.346Z,11.00
2018-05-09T01:12:59.337Z,8.30
2018-05-09T01:13:59.335Z,7.70
2018-05-09T01:14:59.335Z,9.80
2018-05-09T01:15:59.343Z,7.30
2018-05-09T01:16:59.338Z,10.60
2018-05-09T01:17:59.333Z,9.70
2018-05-09T01:18:59.339Z,8.60
2018-05-09T01:19:59.336Z,9.70
2018-05-09T01:20:59.340Z,10.20
2018-05-09T01:21:59.345Z,10.60
2018-05-09T01:22:59.334Z,9.30
2018-05-09T01:23:59.340Z,8.30
2018-05-09T01:24:59.363Z,9.80
2018-05-09T01:25:59.340Z,9.90
2018-05-09T01:26:59.336Z,6.60
2018-05-09T01:27:59.340Z,7.50
2018-05-09T01:28:59.338Z,5.50
2018-05-09T01:29:59.342Z,7.00
2018-05-09T01:30:59.339Z,8.80
2018-05-09T01:31:59.343Z,7.30
2018-05-09T01:32:59.337Z,10.30
2018-05-09T01:33:59.338Z,10.10
2018-05-09T01:34:59.330Z,8.40
2018-05-09T01:35:59.337Z,5.70
2018-05-09T01:36:59.332Z,8.20
2018-05-09T01:37:59.339Z,9.00
2018-05-09T01:38:59.337Z,8.00
2018-05-09T01:39:59.340Z,6.80
2018-05-09T01:40:59.331Z,7.90
2018-05-09T01:41:59.332Z,8.10
2018-05-09T01:42:59.329Z,7.90
2018-05-09T01:43:59.334Z,7.10
2018-05-09T01:44:59.331Z,7.20
2018-05-09T01:45:59.329Z,8.10
2018-05-09T01:46:59.334Z,6.60
2018-05-09T01:47:59.328Z,6.90
2018-05-09T01:48:59.329Z,7.40
2018-05-09T01:49:59.328Z,6.80
2018-05-09T01:50:59.326Z,8.60
2018-05-09T01:51:59.338Z,6.90
2018-05-09T01:52:59.338Z,5.90
2018-05-09T01:53:59.332Z,6.60
2018-05-09T01:54:59.369Z,5.70
2018-05-09T01:55:59.326Z,6.20
2018-05-09T01:56:59.321Z,5.80
2018-05-09T01:57:59.324Z,5.40
2018-05-09T01:58:59.331Z,5.80
2018-05-09T01:59:59.324Z,7.20
2018-05-09T02:00:59.324Z,8.30
2018-05-09T02:01:59.321Z,6.00
2018-05-09T02:02:59.349Z,6.20
2018-05-09T02:03:59.319Z,6.90
2018-05-09T02:04:59.319Z,8.20
2018-05-09T02:05:59.385Z,6.60
2018-05-09T02:06:59.322Z,7.90
2018-05-09T02:07:59.321Z,6.90
2018-05-09T02:08:59.321Z,6.70
2018-05-09T02:09:59.322Z,6.10
2018-05-09T02:10:59.316Z,7.60
2018-05-09T02:11:59.316Z,6.00
2018-05-09T02:12:59.313Z,5.80
2018-05-09T02:13:59.324Z,6.90
2018-05-09T02:14:59.319Z,7.40
2018-05-09T02:15:59.313Z,8.10
2018-05-09T02:16:59.313Z,6.80
2018-05-09T02:17:59.316Z,5.90
2018-05-09T02:18:59.312Z,5.10
2018-05-09T02:19:59.313Z,7.50
2018-05-09T02:20:59.316Z,5.70
2018-05-09T02:21:59.311Z,7.50
2018-05-09T02:22:59.312Z,7.30
2018-05-09T02:23:59.396Z,8.60
2018-05-09T02:24:59.309Z,6.20
2018-05-09T02:25:59.317Z,8.10
2018-05-09T02:26:59.319Z,6.60
2018-05-09T02:27:59.307Z,6.50
2018-05-09T02:28:59.307Z,6.40
2018-05-09T02:29:59.307Z,7.20
2018-05-09T02:30:59.320Z,8.30
2018-05-09T02:31:59.306Z,8.70
2018-05-09T02:32:59.307Z,6.10
2018-05-09T02:33:59.324Z,6.80
2018-05-09T02:34:59.304Z,9.00
2018-05-09T02:35:59.303Z,7.20
2018-05-09T02:36:59.307Z,5.90
2018-05-09T02:37:59.308Z,7.50
2018-05-09T02:38:59.302Z,6.10
2018-05-09T02:39:59.301Z,7.30
2018-05-09T02:40:59.301Z,5.60
2018-05-09T02:41:59.300Z,6.80
2018-05-09T02:42:59.299Z,6.50
2018-05-09T02:43:59.298Z,6.80
2018-05-09T02:44:59.299Z,7.30
2018-05-09T02:45:59.299Z,5.70
2018-05-09T02:46:59.322Z,8.40
2018-05-09T02:47:59.307Z,7.30
2018-05-09T02:48:59.298Z,6.10
2018-05-09T02:49:59.423Z,7.50
2018-05-09T02:50:59.293Z,6.00
2018-05-09T02:51:59.304Z,6.00
2018-05-09T02:52:59.294Z,6.20
2018-05-09T02:53:59.293Z,5.20
2018-05-09T02:54:59.289Z,6.40
2018-05-09T02:55:59.292Z,6.40
2018-05-09T02:56:59.289Z,7.80
2018-05-09T02:57:59.296Z,5.60
2018-05-09T02:58:59.293Z,6.70
2018-05-09T02:59:59.290Z,5.80
2018-05-09T03:00:59.290Z,8.40
2018-05-09T03:01:59.289Z,8.30
2018-05-09T03:02:59.290Z,7.30
2018-05-09T03:03:59.286Z,6.40
2018-05-09T03:04:59.281Z,6.20
2018-05-09T03:05:59.284Z,6.50
2018-05-09T03:06:59.282Z,6.30
2018-05-09T03:07:59.283Z,9.50
2018-05-09T03:08:59.281Z,7.90
2018-05-09T03:09:59.283Z,5.30
2018-05-09T03:10:59.280Z,5.90
2018-05-09T03:11:59.280Z,7.60
2018-05-09T03:12:59.277Z,6.70
2018-05-09T03:13:59.281Z,6.60
2018-05-09T03:14:59.294Z,8.00
2018-05-09T03:15:59.278Z,6.20
2018-05-09T03:16:59.276Z,6.40
2018-05-09T03:17:59.273Z,8.40
2018-05-09T03:18:59.272Z,6.20
2018-05-09T03:19:59.269Z,6.30
2018-05-09T03:20:59.271Z,6.20
2018-05-09T03:21:59.269Z,8.60
2018-05-09T03:22:59.269Z,7.40
2018-05-09T03:23:59.268Z,8.50
2018-05-09T03:24:59.271Z,6.20
2018-05-09T03:25:59.268Z,7.40
2018-05-09T03:26:59.266Z,7.40
2018-05-09T03:27:59.265Z,9.20
2018-05-09T03:28:59.267Z,8.60
2018-05-09T03:29:59.264Z,7.80
2018-05-09T03:30:59.263Z,8.80
2018-05-09T03:31:59.267Z,6.30
2018-05-09T03:32:59.264Z,9.30
2018-05-09T03:33:59.257Z,6.60
2018-05-09T03:34:59.257Z,6.40
2018-05-09T03:35:59.256Z,6.70
2018-05-09T03:36:59.258Z,7.90
2018-05-09T03:37:59.259Z,6.90
2018-05-09T03:38:59.260Z,7.80
2018-05-09T03:39:59.253Z,6.20
2018-05-09T03:40:59.253Z,7.40
2018-05-09T03:41:59.253Z,5.70
2018-05-09T03:42:59.262Z,5.70
2018-05-09T03:43:59.250Z,9.20
2018-05-09T03:44:59.249Z,6.60
2018-05-09T03:45:59.249Z,8.30
2018-05-09T03:46:59.246Z,6.20
2018-05-09T03:47:59.246Z,9.20
2018-05-09T03:48:59.242Z,7.40
2018-05-09T03:49:59.247Z,8.90
2018-05-09T03:50:59.244Z,8.70
2018-05-09T03:51:59.243Z,9.30
2018-05-09T03:52:59.244Z,6.80
2018-05-09T03:53:59.241Z,6.70
2018-05-09T03:54:59.241Z,8.20
2018-05-09T03:55:59.240Z,7.60
2018-05-09T03:56:59.241Z,8.00
2018-05-09T03:57:59.238Z,11.10
2018-05-09T03:58:59.240Z,9.10
2018-05-09T03:59:59.243Z,7.90
2018-05-09T04:00:59.239Z,7.40
2018-05-09T04:01:59.235Z,9.90
2018-05-09T04:02:59.230Z,11.70
2018-05-09T04:03:59.245Z,7.80
2018-05-09T04:04:59.232Z,10.00
2018-05-09T04:05:59.226Z,7.60
2018-05-09T04:06:59.230Z,6.70
2018-05-09T04:07:59.231Z,7.50
2018-05-09T04:08:59.227Z,7.30
2018-05-09T04:09:59.232Z,7.70
2018-05-09T04:10:59.296Z,6.70
2018-05-09T04:11:59.226Z,9.50
2018-05-09T04:12:59.226Z,5.70
2018-05-09T04:13:59.225Z,5.60
2018-05-09T04:14:59.224Z,7.40
2018-05-09T04:15:59.221Z,7.90
2018-05-09T04:16:59.220Z,6.70
2018-05-09T04:17:59.221Z,9.60
2018-05-09T04:18:59.223Z,6.30
2018-05-09T04:19:59.219Z,7.30
2018-05-09T04:20:59.292Z,7.00
2018-05-09T04:21:59.220Z,5.60
2018-05-09T04:22:59.221Z,6.70
2018-05-09T04:23:59.223Z,6.80
2018-05-09T04:24:59.218Z,6.80
2018-05-09T04:25:59.216Z,5.60
2018-05-09T04:26:59.216Z,7.40
2018-05-09T04:27:59.216Z,8.70
2018-05-09T04:28:59.215Z,5.20
2018-05-09T04:29:59.214Z,5.00
2018-05-09T04:30:59.222Z,7.20
2018-05-09T04:31:59.214Z,6.60
2018-05-09T04:32:59.215Z,8.50
2018-05-09T04:33:59.213Z,6.60
2018-05-09T04:34:59.215Z,6.60
2018-05-09T04:35:59.212Z,7.50
2018-05-09T04:36:59.213Z,7.00
2018-05-09T04:37:59.214Z,6.10
2018-05-09T04:38:59.214Z,5.30
2018-05-09T04:39:59.213Z,5.90
2018-05-09T04:40:59.211Z,9.40
2018-05-09T04:41:59.299Z,7.40
2018-05-09T04:42:59.212Z,9.70
2018-05-09T04:43:59.214Z,7.60
2018-05-09T04:44:59.208Z,10.30
2018-05-09T04:45:59.218Z,7.60
2018-05-09T04:46:59.223Z,8.70
2018-05-09T04:47:59.213Z,8.80
2018-05-09T04:48:59.214Z,8.60
2018-05-09T04:49:59.216Z,7.80
2018-05-09T04:50:59.219Z,8.40
2018-05-09T04:51:59.215Z,8.70
2018-05-09T04:52:59.214Z,8.80
2018-05-09T04:53:59.233Z,7.40
2018-05-09T04:54:59.225Z,7.70
2018-05-09T04:55:59.215Z,7.60
2018-05-09T04:56:59.216Z,7.10
2018-05-09T04:57:59.215Z,6.50
2018-05-09T04:58:59.217Z,5.70
2018-05-09T04:59:59.221Z,8.30
2018-05-09T05:00:59.223Z,7.70
2018-05-09T05:01:59.220Z,7.40
2018-05-09T05:02:59.222Z,6.40
2018-05-09T05:03:59.222Z,7.80
2018-05-09T05:04:59.225Z,7.90
2018-05-09T05:05:59.227Z,6.20
2018-05-09T05:06:59.297Z,7.40
2018-05-09T05:07:59.233Z,5.70
2018-05-09T05:08:59.227Z,9.00
2018-05-09T05:09:59.241Z,6.20
2018-05-09T05:10:59.238Z,7.50
2018-05-09T05:11:59.237Z,7.80
2018-05-09T05:12:59.239Z,8.00
2018-05-09T05:13:59.244Z,10.30
2018-05-09T05:14:59.240Z,7.20
2018-05-09T05:15:59.243Z,7.00
2018-05-09T05:16:59.248Z,11.20
2018-05-09T05:17:59.246Z,6.20
2018-05-09T05:18:59.249Z,7.70
2018-05-09T05:19:59.248Z,8.90
2018-05-09T05:20:59.251Z,5.90
2018-05-09T05:21:59.253Z,7.10
2018-05-09T05:22:59.258Z,8.20
2018-05-09T05:23:59.260Z,8.00
2018-05-09T05:24:59.262Z,6.60
2018-05-09T05:25:59.266Z,8.60
2018-05-09T05:26:59.358Z,8.50
2018-05-09T05:27:59.268Z,9.10
2018-05-09T05:28:59.274Z,11.40
2018-05-09T05:29:59.279Z,6.70
2018-05-09T05:30:59.280Z,9.10
2018-05-09T05:31:59.280Z,8.90
2018-05-09T05:32:59.286Z,9.60
2018-05-09T05:33:59.287Z,8.60
2018-05-09T05:34:59.332Z,8.70
2018-05-09T05:35:59.290Z,9.10
2018-05-09T05:36:59.295Z,9.80
2018-05-09T05:37:59.297Z,8.80
2018-05-09T05:38:59.299Z,8.80
2018-05-09T05:39:59.301Z,11.50
2018-05-09T05:40:59.304Z,8.40
2018-05-09T05:41:59.308Z,7.80
2018-05-09T05:42:59.309Z,8.10
2018-05-09T05:43:59.314Z,8.70
2018-05-09T05:44:59.381Z,10.80
2018-05-09T05:45:59.321Z,9.60
2018-05-09T05:46:59.320Z,9.00
2018-05-09T05:47:59.320Z,7.10
2018-05-09T05:48:59.328Z,9.60
2018-05-09T05:49:59.333Z,8.70
2018-05-09T05:50:59.334Z,9.10
2018-05-09T05:51:59.356Z,12.80
2018-05-09T05:52:59.337Z,9.20
2018-05-09T05:53:59.341Z,6.50
2018-05-09T05:54:59.344Z,9.00
2018-05-09T05:55:59.372Z,8.10
2018-05-09T05:56:59.350Z,7.80
2018-05-09T05:57:59.352Z,10.00
2018-05-09T05:58:59.356Z,10.20
2018-05-09T05:59:59.356Z,13.40
2018-05-09T06:00:59.362Z,9.50
2018-05-09T06:01:59.364Z,10.60
2018-05-09T06:02:59.370Z,7.50
2018-05-09T06:03:59.371Z,10.80
2018-05-09T06:04:59.383Z,8.90
2018-05-09T06:05:59.376Z,9.50
2018-05-09T06:06:59.382Z,8.10
2018-05-09T06:07:59.480Z,10.50
2018-05-09T06:08:59.386Z,8.20
2018-05-09T06:09:59.428Z,8.70
2018-05-09T06:10:59.392Z,10.20
2018-05-09T06:11:59.390Z,10.30
2018-05-09T06:12:59.400Z,8.30
2018-05-09T06:13:59.407Z,13.30
2018-05-09T06:14:59.405Z,8.90
2018-05-09T06:15:59.418Z,9.40
2018-05-09T06:16:59.412Z,10.00
2018-05-09T06:17:59.419Z,9.70
2018-05-09T06:18:59.441Z,8.80
2018-05-09T06:19:59.440Z,8.50
2018-05-09T06:20:59.424Z,11.30
2018-05-09T06:21:59.429Z,9.90
2018-05-09T06:22:59.435Z,9.90
2018-05-09T06:23:59.446Z,8.10
2018-05-09T06:24:59.454Z,8.10
2018-05-09T06:25:59.457Z,10.10
2018-05-09T06:26:59.451Z,7.80
2018-05-09T06:27:59.455Z,9.80
2018-05-09T06:28:59.460Z,9.00
2018-05-09T06:29:59.470Z,8.50
2018-05-09T06:30:59.543Z,9.30
2018-05-09T06:31:59.480Z,9.40
2018-05-09T06:32:59.479Z,9.30
2018-05-09T06:33:59.483Z,8.30
2018-05-09T06:34:59.488Z,10.90
2018-05-09T06:35:59.494Z,9.00
2018-05-09T06:36:59.497Z,11.10
2018-05-09T06:37:59.503Z,12.00
2018-05-09T06:38:59.508Z,8.90
2018-05-09T06:39:59.513Z,9.30
2018-05-09T06:40:59.516Z,7.60
2018-05-09T06:41:59.518Z,7.00
2018-05-09T06:42:59.523Z,10.50
2018-05-09T06:43:59.527Z,10.40
2018-05-09T06:44:59.533Z,11.00
2018-05-09T06:45:59.537Z,9.70
2018-05-09T06:46:59.545Z,7.60
2018-05-09T06:47:59.554Z,8.80
2018-05-09T06:48:59.551Z,8.70
2018-05-09T06:49:59.683Z,7.90
2018-05-09T06:50:59.560Z,9.50
2018-05-09T06:51:59.640Z,8.30
2018-05-09T06:52:59.571Z,11.50
2018-05-09T06:53:59.575Z,9.60
2018-05-09T06:54:59.579Z,9.00
2018-05-09T06:55:59.586Z,8.00
2018-05-09T06:56:59.593Z,10.10
2018-05-09T06:57:59.596Z,10.20
2018-05-09T06:58:59.659Z,9.00
2018-05-09T06:59:59.615Z,8.40
2018-05-09T07:00:59.618Z,8.10
2018-05-09T07:01:59.622Z,7.30
2018-05-09T07:02:59.627Z,6.60
2018-05-09T07:03:59.629Z,9.10
2018-05-09T07:04:59.637Z,9.30
2018-05-09T07:05:59.640Z,7.80
2018-05-09T07:06:59.643Z,8.70
2018-05-09T07:07:59.651Z,7.60
2018-05-09T07:08:59.655Z,7.90
2018-05-09T07:09:59.667Z,10.10
2018-05-09T07:10:59.667Z,8.20
2018-05-09T07:11:59.676Z,7.80
2018-05-09T07:12:59.677Z,6.80
2018-05-09T07:13:59.686Z,8.60
2018-05-09T07:14:59.694Z,8.20
2018-05-09T07:15:59.700Z,7.40
2018-05-09T07:16:59.702Z,9.80
2018-05-09T07:17:59.712Z,10.10
2018-05-09T07:18:59.719Z,8.60
2018-05-09T07:19:59.726Z,10.30
2018-05-09T07:20:59.732Z,8.40
2018-05-09T07:21:59.738Z,7.90
2018-05-09T07:22:59.817Z,8.50
2018-05-09T07:23:59.753Z,7.10
2018-05-09T07:24:59.754Z,8.70
2018-05-09T07:25:59.770Z,9.20
2018-05-09T07:26:59.775Z,10.70
2018-05-09T07:27:59.782Z,9.30
2018-05-09T07:28:59.787Z,8.90
2018-05-09T07:29:59.796Z,7.00
2018-05-09T07:30:59.800Z,8.40
2018-05-09T07:31:59.808Z,9.30
2018-05-09T07:32:59.814Z,8.10
2018-05-09T07:33:59.821Z,8.40
2018-05-09T07:34:59.831Z,8.00
2018-05-09T07:35:59.835Z,9.10
2018-05-09T07:36:59.845Z,8.50
2018-05-09T07:37:59.852Z,9.00
2018-05-09T07:38:59.859Z,10.40
2018-05-09T07:39:59.867Z,7.30
2018-05-09T07:40:59.874Z,9.50
2018-05-09T07:41:59.884Z,8.60
2018-05-09T07:42:59.888Z,7.70
2018-05-09T07:43:59.895Z,8.60
2018-05-09T07:44:59.903Z,8.70
2018-05-09T07:45:59.912Z,9.90
2018-05-09T07:46:59.917Z,8.30
2018-05-09T07:48:00.012Z,5.60
2018-05-09T07:48:59.941Z,5.60
2018-05-09T07:49:59.939Z,8.40
2018-05-09T07:50:59.955Z,9.70
2018-05-09T07:51:59.956Z,9.10
2018-05-09T07:52:59.963Z,6.60
2018-05-09T07:53:59.974Z,7.70
2018-05-09T07:54:59.980Z,9.60
2018-05-09T07:55:59.990Z,8.20
2018-05-09T07:56:59.996Z,7.60
2018-05-09T07:58:00.012Z,8.10
2018-05-09T07:59:00.012Z,6.30
2018-05-09T08:00:00.021Z,9.70
2018-05-09T08:01:00.031Z,8.50
2018-05-09T08:02:00.035Z,6.40
2018-05-09T08:03:00.045Z,8.10
2018-05-09T08:04:00.053Z,9.40
2018-05-09T08:05:00.063Z,8.80
2018-05-09T08:06:00.171Z,8.50
2018-05-09T08:07:00.077Z,10.60
2018-05-09T08:08:00.090Z,8.30
2018-05-09T08:09:00.095Z,9.60
2018-05-09T08:10:00.105Z,8.30
2018-05-09T08:11:00.157Z,7.70
2018-05-09T08:12:00.125Z,9.10
2018-05-09T08:13:00.131Z,9.60
2018-05-09T08:14:00.147Z,7.00
2018-05-09T08:15:00.152Z,9.30
2018-05-09T08:16:00.163Z,8.70
2018-05-09T08:17:00.171Z,10.30
2018-05-09T08:18:00.178Z,5.40
2018-05-09T08:19:00.191Z,9.10
2018-05-09T08:20:00.197Z,9.80
2018-05-09T08:21:00.204Z,6.20
2018-05-09T08:22:00.214Z,8.70
2018-05-09T08:23:00.262Z,9.50
2018-05-09T08:24:00.232Z,6.50
2018-05-09T08:25:00.242Z,8.90
2018-05-09T08:26:00.266Z,7.20
2018-05-09T08:27:00.266Z,5.30
2018-05-09T08:28:00.265Z,7.30
2018-05-09T08:29:00.290Z,7.50
2018-05-09T08:30:00.288Z,10.00
2018-05-09T08:31:00.300Z,7.80
2018-05-09T08:32:00.308Z,7.40
2018-05-09T08:33:00.315Z,8.20
2018-05-09T08:34:00.325Z,8.50
2018-05-09T08:35:00.338Z,10.50
2018-05-09T08:36:00.349Z,5.00
2018-05-09T08:37:00.355Z,8.20
2018-05-09T08:38:00.365Z,8.90
2018-05-09T08:39:00.383Z,8.30
2018-05-09T08:40:00.389Z,8.60
2018-05-09T08:41:00.399Z,8.70
2018-05-09T08:42:00.407Z,6.80
2018-05-09T08:43:00.417Z,8.20
2018-05-09T08:44:00.528Z,7.20
2018-05-09T08:45:00.439Z,9.90
2018-05-09T08:46:00.446Z,7.90
2018-05-09T08:47:00.457Z,7.90
2018-05-09T08:48:00.467Z,6.70
2018-05-09T08:49:00.485Z,8.80
2018-05-09T08:50:00.492Z,8.90
2018-05-09T08:51:00.498Z,9.70
2018-05-09T08:52:00.509Z,8.20
2018-05-09T08:53:00.516Z,10.00
2018-05-09T08:54:00.523Z,11.20
2018-05-09T08:55:00.543Z,8.20
2018-05-09T08:56:00.542Z,5.70
2018-05-09T08:57:00.554Z,6.70
2018-05-09T08:58:00.564Z,5.40
2018-05-09T08:59:00.640Z,10.60
2018-05-09T09:00:00.590Z,8.40
2018-05-09T09:01:00.595Z,7.70
2018-05-09T09:02:00.600Z,4.50
2018-05-09T09:03:00.608Z,6.90
2018-05-09T09:04:00.617Z,6.30
2018-05-09T09:05:00.626Z,7.50
2018-05-09T09:06:00.634Z,15.40
2018-05-09T09:07:00.657Z,5.80
2018-05-09T09:08:00.647Z,6.70
2018-05-09T09:09:00.653Z,7.60
2018-05-09T09:10:00.664Z,8.70
2018-05-09T09:11:00.678Z,11.30
2018-05-09T09:12:00.677Z,6.30
2018-05-09T09:13:00.685Z,8.10
2018-05-09T09:14:00.715Z,5.80
2018-05-09T09:15:00.695Z,8.20
2018-05-09T09:16:00.700Z,8.70
2018-05-09T09:17:00.706Z,8.50
2018-05-09T09:18:00.715Z,8.20
2018-05-09T09:19:00.729Z,9.60
2018-05-09T09:20:00.725Z,5.30
2018-05-09T09:21:00.732Z,5.60
2018-05-09T09:22:00.738Z,6.30
2018-05-09T09:23:00.748Z,12.30
2018-05-09T09:24:00.747Z,5.70
2018-05-09T09:25:00.755Z,5.50
2018-05-09T09:26:00.761Z,6.70
2018-05-09T09:27:00.769Z,7.50
2018-05-09T09:28:00.770Z,6.00
2018-05-09T09:29:00.770Z,7.60
2018-05-09T09:30:00.784Z,8.20
2018-05-09T09:31:00.784Z,5.70
2018-05-09T09:32:00.791Z,11.90
2018-05-09T09:33:00.793Z,7.20
2018-05-09T09:34:00.808Z,5.60
2018-05-09T09:35:00.804Z,6.00
2018-05-09T09:36:00.813Z,5.50
2018-05-09T09:37:00.820Z,4.70
2018-05-09T09:38:00.823Z,4.80
2018-05-09T09:39:00.827Z,4.70
2018-05-09T09:40:00.832Z,7.20
2018-05-09T09:41:00.838Z,6.80
2018-05-09T09:42:00.843Z,7.30
2018-05-09T09:43:00.843Z,7.90
2018-05-09T09:44:00.857Z,6.10
2018-05-09T09:45:00.862Z,10.10
2018-05-09T09:46:00.882Z,5.80
2018-05-09T09:47:00.876Z,7.10
2018-05-09T09:48:00.875Z,3.70
2018-05-09T09:49:00.882Z,7.80
2018-05-09T09:50:00.884Z,5.90
2018-05-09T09:51:00.919Z,4.80
2018-05-09T09:52:00.897Z,5.20
2018-05-09T09:53:00.898Z,5.40
2018-05-09T09:54:00.904Z,4.20
2018-05-09T09:55:00.910Z,6.70
2018-05-09T09:56:00.912Z,5.90
2018-05-09T09:57:00.918Z,7.10
2018-05-09T09:58:00.926Z,6.50
2018-05-09T09:59:00.929Z,5.50
2018-05-09T10:00:00.931Z,7.90
2018-05-09T10:01:00.970Z,7.00
2018-05-09T10:02:00.944Z,5.50
2018-05-09T10:03:00.950Z,6.00
2018-05-09T10:04:00.955Z,5.90
2018-05-09T10:05:00.963Z,6.00
2018-05-09T10:06:00.963Z,8.20
2018-05-09T10:07:00.962Z,4.50
2018-05-09T10:08:00.999Z,6.90
2018-05-09T10:09:00.975Z,4.60
2018-05-09T10:10:00.982Z,4.30
2018-05-09T10:11:00.986Z,5.20
2018-05-09T10:12:00.991Z,5.30
2018-05-09T10:13:00.997Z,4.70
2018-05-09T10:14:01.001Z,8.70
2018-05-09T10:15:01.009Z,4.90
2018-05-09T10:16:01.017Z,8.40
2018-05-09T10:17:01.018Z,6.50
2018-05-09T10:18:01.024Z,6.20
2018-05-09T10:19:01.035Z,7.90
2018-05-09T10:20:01.030Z,4.60
2018-05-09T10:21:01.039Z,7.40
2018-05-09T10:22:01.048Z,5.20
2018-05-09T10:23:01.048Z,4.70
2018-05-09T10:24:01.123Z,5.00
2018-05-09T10:25:01.059Z,6.20
2018-05-09T10:26:01.087Z,5.50
2018-05-09T10:27:01.073Z,5.00
2018-05-09T10:28:01.084Z,5.60
2018-05-09T10:29:01.086Z,4.80
2018-05-09T10:30:01.090Z,5.80
2018-05-09T10:31:01.092Z,3.30
2018-05-09T10:32:01.096Z,5.60
2018-05-09T10:33:01.140Z,4.30
2018-05-09T10:34:02.978Z,5.70
2018-05-09T10:35:01.214Z,4.90
2018-05-09T10:36:01.356Z,9.10
2018-05-09T10:37:01.126Z,3.90
2018-05-09T10:38:01.523Z,6.80
2018-05-09T10:39:01.146Z,8.80
2018-05-09T10:40:01.242Z,7.60
2018-05-09T10:41:01.289Z,4.20
2018-05-09T10:43:01.185Z,5.10
2018-05-09T10:44:01.161Z,5.50
2018-05-09T10:45:01.318Z,6.50
2018-05-09T10:46:01.169Z,4.60
2018-05-09T10:47:01.175Z,4.60
2018-05-09T10:48:01.278Z,3.40
2018-05-09T10:49:02.172Z,6.50
2018-05-09T10:50:01.205Z,3.50
2018-05-09T10:51:01.257Z,5.90
2018-05-09T10:52:01.667Z,6.40
2018-05-09T10:53:01.393Z,5.90
2018-05-09T10:54:01.578Z,4.40
2018-05-09T10:55:01.520Z,5.50
2018-05-09T10:56:01.489Z,7.10
2018-05-09T10:57:01.228Z,5.20
2018-05-09T10:58:01.235Z,7.80
2018-05-09T10:59:01.239Z,3.60
2018-05-09T11:00:01.249Z,5.60
2018-05-09T11:01:01.259Z,6.30
2018-05-09T11:02:01.259Z,3.60
2018-05-09T11:03:01.263Z,5.00
2018-05-09T11:04:01.266Z,3.20
2018-05-09T11:05:01.303Z,3.00
2018-05-09T11:06:01.278Z,5.90
2018-05-09T11:07:01.303Z,6.80
2018-05-09T11:08:01.971Z,5.20
2018-05-09T11:09:01.294Z,4.30
2018-05-09T11:10:01.304Z,5.90
2018-05-09T11:11:01.304Z,6.60
2018-05-09T11:12:01.323Z,6.60
2018-05-09T11:13:01.318Z,6.00
2018-05-09T11:14:01.323Z,10.80
2018-05-09T11:15:01.328Z,7.00
2018-05-09T11:16:01.334Z,7.40
2018-05-09T11:17:01.352Z,7.80
2018-05-09T11:18:01.345Z,3.70
2018-05-09T11:19:01.350Z,4.00
2018-05-09T11:20:01.353Z,6.50
2018-05-09T11:21:01.360Z,5.80
2018-05-09T11:22:01.372Z,2.80
2018-05-09T11:23:01.370Z,3.40
2018-05-09T11:24:01.375Z,3.90
2018-05-09T11:25:01.387Z,7.30
2018-05-09T11:26:01.385Z,4.80
2018-05-09T11:27:01.392Z,4.20
2018-05-09T11:28:01.398Z,6.90
2018-05-09T11:29:01.405Z,6.50
2018-05-09T11:30:01.409Z,6.30
2018-05-09T11:31:01.413Z,5.10
2018-05-09T11:32:01.416Z,4.50
2018-05-09T11:33:01.424Z,5.70
2018-05-09T11:34:01.433Z,9.40
2018-05-09T11:35:01.433Z,4.60
2018-05-09T11:36:01.443Z,6.40
2018-05-09T11:37:01.447Z,5.80
2018-05-09T11:38:01.454Z,3.70
2018-05-09T11:39:01.459Z,4.60
2018-05-09T11:40:01.466Z,6.10
2018-05-09T11:41:01.472Z,7.10
2018-05-09T11:42:01.481Z,4.20
2018-05-09T11:43:01.481Z,3.60
2018-05-09T11:44:01.488Z,8.90
2018-05-09T11:45:01.495Z,3.70
2018-05-09T11:46:01.506Z,7.10
2018-05-09T11:47:01.504Z,4.50
2018-05-09T11:48:01.510Z,5.40
2018-05-09T11:49:01.520Z,5.60
2018-05-09T11:50:01.520Z,5.80
2018-05-09T11:51:01.529Z,5.70
2018-05-09T11:52:01.533Z,6.40
2018-05-09T11:53:01.546Z,7.00
2018-05-09T11:54:01.545Z,5.20
2018-05-09T11:55:01.552Z,5.10
2018-05-09T11:56:01.559Z,6.60
2018-05-09T11:57:01.563Z,6.60
2018-05-09T11:58:01.570Z,5.70
2018-05-09T11:59:01.575Z,5.60
2018-05-09T12:00:01.582Z,4.20
2018-05-09T12:01:01.591Z,5.30
2018-05-09T12:02:01.596Z,4.10
2018-05-09T12:03:01.600Z,4.00
2018-05-09T12:04:01.602Z,4.90
2018-05-09T12:05:01.608Z,6.90
2018-05-09T12:06:01.619Z,14.70
2018-05-09T12:07:01.621Z,3.90
2018-05-09T12:08:01.624Z,5.70
2018-05-09T12:09:01.635Z,5.60
2018-05-09T12:10:01.637Z,3.70
2018-05-09T12:11:01.642Z,7.20
2018-05-09T12:12:01.646Z,11.20
2018-05-09T12:13:01.657Z,4.80
2018-05-09T12:14:01.658Z,6.40
2018-05-09T12:15:01.663Z,7.40
2018-05-09T12:16:01.677Z,4.00
2018-05-09T12:17:01.680Z,4.70
2018-05-09T12:18:01.681Z,5.30
2018-05-09T12:19:01.687Z,5.60
2018-05-09T12:20:01.700Z,6.20
2018-05-09T12:21:01.699Z,6.10
2018-05-09T12:22:01.710Z,5.00
2018-05-09T12:23:01.710Z,5.30
2018-05-09T12:24:01.721Z,7.00
2018-05-09T12:25:01.722Z,6.60
2018-05-09T12:26:01.729Z,8.10
2018-05-09T12:27:01.734Z,9.00
2018-05-09T12:28:01.739Z,7.80
2018-05-09T12:29:01.745Z,6.30
2018-05-09T12:30:01.754Z,10.70
2018-05-09T12:31:01.757Z,8.20
2018-05-09T12:32:01.772Z,6.40
2018-05-09T12:33:01.772Z,7.30
2018-05-09T12:34:01.779Z,5.40
2018-05-09T12:35:01.784Z,5.80
2018-05-09T12:36:01.788Z,7.90
2018-05-09T12:37:01.793Z,6.30
2018-05-09T12:38:01.797Z,7.30
2018-05-09T12:39:01.807Z,8.90
2018-05-09T12:40:01.814Z,4.20
2018-05-09T12:41:01.843Z,5.90
2018-05-09T12:42:01.841Z,6.80
2018-05-09T12:43:01.831Z,9.70
2018-05-09T12:44:01.839Z,6.20
2018-05-09T12:45:01.844Z,6.70
2018-05-09T12:46:01.850Z,5.90
2018-05-09T12:47:01.856Z,5.70
2018-05-09T12:48:01.862Z,7.00
2018-05-09T12:49:01.869Z,5.60
2018-05-09T12:50:01.875Z,6.00
2018-05-09T12:51:01.877Z,6.70
2018-05-09T12:52:09.533Z,6.60
2018-05-09T12:53:55.315Z,8.70
2018-05-09T12:54:55.295Z,5.50
2018-05-09T12:56:48.214Z,6.70
2018-05-09T12:57:48.219Z,5.40
2018-05-09T12:59:41.640Z,5.90
2018-05-09T13:00:41.626Z,7.90
2018-05-09T13:02:35.035Z,5.70
2018-05-09T13:03:35.036Z,4.60
2018-05-09T13:05:28.473Z,3.50
2018-05-09T13:06:28.457Z,7.80
2018-05-09T13:08:21.889Z,5.50
2018-05-09T13:09:21.874Z,6.70
2018-05-09T13:11:15.298Z,5.40
2018-05-09T13:12:15.282Z,9.60
2018-05-09T13:14:08.708Z,7.00
2018-05-09T13:15:08.693Z,7.20
2018-05-09T13:17:02.101Z,5.20
2018-05-09T13:18:02.107Z,4.40
2018-05-09T13:19:55.552Z,6.10
2018-05-09T13:20:55.541Z,5.10
2018-05-09T13:22:48.990Z,5.30
2018-05-09T13:23:48.996Z,5.80
2018-05-09T13:25:42.466Z,5.60
2018-05-09T13:26:42.435Z,6.20